sensor_id;sensor_type;location;lat;lon;timestamp;pressure;altitude;pressure_sealevel;temperature;humidity
68988;BME280;56038;46.080;11.116;2023-05-12T00:04:24;99013.19;;;10.95;97.54
68988;BME280;56038;46.080;11.116;2023-05-12T00:09:26;99005.13;;;11.00;97.94
68988;BME280;56038;46.080;11.116;2023-05-12T00:14:27;99000.56;;;11.05;98.08
68988;BME280;56038;46.080;11.116;2023-05-12T00:19:30;98991.16;;;11.01;98.15
68988;BME280;56038;46.080;11.116;2023-05-12T00:24:32;98985.16;;;10.99;98.19
68988;BME280;56038;46.080;11.116;2023-05-12T00:29:34;98975.78;;;10.95;98.06
68988;BME280;56038;46.080;11.116;2023-05-12T00:34:37;98980.50;;;10.87;97.69
68988;BME280;56038;46.080;11.116;2023-05-12T00:39:39;98974.59;;;10.83;98.34
68988;BME280;56038;46.080;11.116;2023-05-12T00:44:40;98977.03;;;10.86;98.50
68988;BME280;56038;46.080;11.116;2023-05-12T00:49:43;98982.41;;;10.83;98.28
68988;BME280;56038;46.080;11.116;2023-05-12T00:54:45;98976.00;;;10.90;98.47
68988;BME280;56038;46.080;11.116;2023-05-12T00:59:48;98972.53;;;10.90;98.11
68988;BME280;56038;46.080;11.116;2023-05-12T01:04:51;98967.59;;;10.84;98.23
68988;BME280;56038;46.080;11.116;2023-05-12T01:09:53;98981.41;;;10.86;98.07
68988;BME280;56038;46.080;11.116;2023-05-12T01:14:56;98977.28;;;10.82;97.83
68988;BME280;56038;46.080;11.116;2023-05-12T01:20:01;98979.88;;;10.82;99.16
68988;BME280;56038;46.080;11.116;2023-05-12T01:25:06;98979.34;;;10.75;99.86
68988;BME280;56038;46.080;11.116;2023-05-12T01:30:13;98966.06;;;10.79;99.36
68988;BME280;56038;46.080;11.116;2023-05-12T01:35:16;98961.06;;;10.75;98.85
68988;BME280;56038;46.080;11.116;2023-05-12T01:40:18;98968.16;;;10.71;98.38
68988;BME280;56038;46.080;11.116;2023-05-12T01:45:21;98969.22;;;10.67;98.77
68988;BME280;56038;46.080;11.116;2023-05-12T01:50:23;98966.22;;;10.58;99.07
68988;BME280;56038;46.080;11.116;2023-05-12T01:55:24;98972.34;;;10.57;99.63
68988;BME280;56038;46.080;11.116;2023-05-12T02:00:27;98966.16;;;10.59;98.93
68988;BME280;56038;46.080;11.116;2023-05-12T02:05:38;98965.94;;;10.64;98.35
68988;BME280;56038;46.080;11.116;2023-05-12T02:10:48;98972.91;;;10.63;98.90
68988;BME280;56038;46.080;11.116;2023-05-12T02:15:51;98967.84;;;10.60;98.91
68988;BME280;56038;46.080;11.116;2023-05-12T02:20:53;98971.22;;;10.62;98.92
68988;BME280;56038;46.080;11.116;2023-05-12T02:25:55;98956.47;;;10.61;99.46
68988;BME280;56038;46.080;11.116;2023-05-12T02:30:58;98966.84;;;10.63;98.92
68988;BME280;56038;46.080;11.116;2023-05-12T02:36:00;98956.66;;;10.57;99.31
68988;BME280;56038;46.080;11.116;2023-05-12T02:41:01;98965.56;;;10.53;98.91
68988;BME280;56038;46.080;11.116;2023-05-12T02:46:05;98973.47;;;10.51;99.24
68988;BME280;56038;46.080;11.116;2023-05-12T02:51:06;98966.56;;;10.50;99.47
68988;BME280;56038;46.080;11.116;2023-05-12T02:56:08;98964.94;;;10.47;99.54
68988;BME280;56038;46.080;11.116;2023-05-12T03:01:11;98962.13;;;10.52;98.74
68988;BME280;56038;46.080;11.116;2023-05-12T03:06:18;98962.97;;;10.53;98.83
68988;BME280;56038;46.080;11.116;2023-05-12T03:11:20;98961.34;;;10.50;99.10
68988;BME280;56038;46.080;11.116;2023-05-12T03:16:23;98969.94;;;10.52;99.55
68988;BME280;56038;46.080;11.116;2023-05-12T03:21:25;98968.09;;;10.54;99.14
68988;BME280;56038;46.080;11.116;2023-05-12T03:26:27;98973.25;;;10.56;98.79
68988;BME280;56038;46.080;11.116;2023-05-12T03:31:30;98972.72;;;10.49;98.93
68988;BME280;56038;46.080;11.116;2023-05-12T03:36:32;98966.28;;;10.56;98.75
68988;BME280;56038;46.080;11.116;2023-05-12T03:41:34;98965.41;;;10.56;98.67
68988;BME280;56038;46.080;11.116;2023-05-12T03:46:37;98969.09;;;10.52;99.07
68988;BME280;56038;46.080;11.116;2023-05-12T03:51:39;98960.34;;;10.53;98.71
68988;BME280;56038;46.080;11.116;2023-05-12T03:56:41;98958.44;;;10.56;98.94
68988;BME280;56038;46.080;11.116;2023-05-12T04:01:44;98963.53;;;10.59;99.18
68988;BME280;56038;46.080;11.116;2023-05-12T04:06:46;98968.75;;;10.59;98.89
68988;BME280;56038;46.080;11.116;2023-05-12T04:11:48;98972.91;;;10.63;99.08
68988;BME280;56038;46.080;11.116;2023-05-12T04:16:53;98968.31;;;10.68;99.37
68988;BME280;56038;46.080;11.116;2023-05-12T04:21:55;98972.53;;;10.71;99.07
68988;BME280;56038;46.080;11.116;2023-05-12T04:26:56;98974.13;;;10.75;98.44
68988;BME280;56038;46.080;11.116;2023-05-12T04:31:59;98975.03;;;10.74;98.81
68988;BME280;56038;46.080;11.116;2023-05-12T04:37:01;98981.44;;;10.67;99.69
68988;BME280;56038;46.080;11.116;2023-05-12T04:42:03;98986.44;;;10.71;99.24
68988;BME280;56038;46.080;11.116;2023-05-12T04:47:06;98987.28;;;10.72;98.73
68988;BME280;56038;46.080;11.116;2023-05-12T04:52:08;98986.34;;;10.74;98.18
68988;BME280;56038;46.080;11.116;2023-05-12T04:57:09;98986.34;;;10.74;98.38
68988;BME280;56038;46.080;11.116;2023-05-12T05:02:13;98987.88;;;10.78;98.27
68988;BME280;56038;46.080;11.116;2023-05-12T05:07:14;98996.09;;;10.88;97.97
68988;BME280;56038;46.080;11.116;2023-05-12T05:12:16;98987.31;;;10.91;97.63
68988;BME280;56038;46.080;11.116;2023-05-12T05:17:19;98993.69;;;11.02;97.49
68988;BME280;56038;46.080;11.116;2023-05-12T05:22:21;98983.66;;;11.12;97.09
68988;BME280;56038;46.080;11.116;2023-05-12T05:27:22;98991.09;;;11.20;96.92
68988;BME280;56038;46.080;11.116;2023-05-12T05:32:25;98984.09;;;11.20;96.82
68988;BME280;56038;46.080;11.116;2023-05-12T05:37:27;98993.19;;;11.30;96.38
68988;BME280;56038;46.080;11.116;2023-05-12T05:42:29;99001.53;;;11.38;96.25
68988;BME280;56038;46.080;11.116;2023-05-12T05:47:32;99004.00;;;11.42;95.53
68988;BME280;56038;46.080;11.116;2023-05-12T05:52:34;99004.50;;;11.48;95.10
68988;BME280;56038;46.080;11.116;2023-05-12T05:57:35;99013.13;;;11.50;94.91
68988;BME280;56038;46.080;11.116;2023-05-12T06:02:38;99018.28;;;11.52;95.42
68988;BME280;56038;46.080;11.116;2023-05-12T06:07:40;99015.06;;;11.47;95.02
68988;BME280;56038;46.080;11.116;2023-05-12T06:12:42;99017.91;;;11.42;95.46
68988;BME280;56038;46.080;11.116;2023-05-12T06:17:45;99016.06;;;11.44;95.53
68988;BME280;56038;46.080;11.116;2023-05-12T06:22:47;99011.59;;;11.46;95.50
68988;BME280;56038;46.080;11.116;2023-05-12T06:27:49;99022.13;;;11.45;95.65
68988;BME280;56038;46.080;11.116;2023-05-12T06:32:53;99024.06;;;11.41;95.21
68988;BME280;56038;46.080;11.116;2023-05-12T06:37:55;99027.59;;;11.40;95.64
68988;BME280;56038;46.080;11.116;2023-05-12T06:42:56;99025.00;;;11.40;95.38
68988;BME280;56038;46.080;11.116;2023-05-12T06:47:59;99033.53;;;11.44;95.43
68988;BME280;56038;46.080;11.116;2023-05-12T06:53:04;99027.78;;;11.54;95.14
68988;BME280;56038;46.080;11.116;2023-05-12T06:58:07;99022.91;;;11.64;94.72
68988;BME280;56038;46.080;11.116;2023-05-12T07:03:10;99025.25;;;11.70;94.39
68988;BME280;56038;46.080;11.116;2023-05-12T07:08:11;99020.88;;;11.88;94.09
68988;BME280;56038;46.080;11.116;2023-05-12T07:13:13;99027.53;;;12.11;93.68
68988;BME280;56038;46.080;11.116;2023-05-12T07:18:16;99029.19;;;12.29;92.55
68988;BME280;56038;46.080;11.116;2023-05-12T07:23:18;99027.22;;;12.50;91.75
68988;BME280;56038;46.080;11.116;2023-05-12T07:28:20;99036.34;;;12.58;90.50
68988;BME280;56038;46.080;11.116;2023-05-12T07:33:23;99032.16;;;12.72;90.17
68988;BME280;56038;46.080;11.116;2023-05-12T07:38:24;99037.75;;;12.81;89.78
68988;BME280;56038;46.080;11.116;2023-05-12T07:43:26;99038.31;;;12.86;88.96
68988;BME280;56038;46.080;11.116;2023-05-12T07:48:29;99036.16;;;12.95;88.85
68988;BME280;56038;46.080;11.116;2023-05-12T07:53:31;99039.84;;;13.06;88.79
68988;BME280;56038;46.080;11.116;2023-05-12T07:58:32;99033.78;;;13.22;88.42
68988;BME280;56038;46.080;11.116;2023-05-12T08:03:36;99023.06;;;13.26;87.46
68988;BME280;56038;46.080;11.116;2023-05-12T08:08:37;99028.84;;;13.47;87.03
68988;BME280;56038;46.080;11.116;2023-05-12T08:13:39;99027.06;;;13.47;86.28
68988;BME280;56038;46.080;11.116;2023-05-12T08:18:42;99023.31;;;13.52;85.35
68988;BME280;56038;46.080;11.116;2023-05-12T08:23:44;99021.59;;;13.66;84.75
68988;BME280;56038;46.080;11.116;2023-05-12T08:28:45;99016.00;;;13.87;83.65
68988;BME280;56038;46.080;11.116;2023-05-12T08:33:48;99019.81;;;14.11;82.98
68988;BME280;56038;46.080;11.116;2023-05-12T08:38:50;99014.25;;;14.16;82.36
68988;BME280;56038;46.080;11.116;2023-05-12T08:43:52;99015.97;;;14.31;81.88
68988;BME280;56038;46.080;11.116;2023-05-12T08:48:58;99014.59;;;14.54;81.00
68988;BME280;56038;46.080;11.116;2023-05-12T08:54:02;99017.22;;;14.68;81.06
68988;BME280;56038;46.080;11.116;2023-05-12T08:59:07;99027.78;;;14.81;80.33
68988;BME280;56038;46.080;11.116;2023-05-12T09:04:11;99021.72;;;15.07;79.28
68988;BME280;56038;46.080;11.116;2023-05-12T09:09:13;99033.06;;;15.49;78.96
68988;BME280;56038;46.080;11.116;2023-05-12T09:14:17;99022.00;;;15.56;78.14
68988;BME280;56038;46.080;11.116;2023-05-12T09:19:25;99023.50;;;15.61;77.48
68988;BME280;56038;46.080;11.116;2023-05-12T09:24:35;99024.75;;;15.82;76.10
68988;BME280;56038;46.080;11.116;2023-05-12T09:29:46;99018.31;;;15.86;75.04
68988;BME280;56038;46.080;11.116;2023-05-12T09:34:50;99024.31;;;15.88;75.74
68988;BME280;56038;46.080;11.116;2023-05-12T09:39:58;99021.28;;;15.94;75.23
68988;BME280;56038;46.080;11.116;2023-05-12T09:45:01;99024.97;;;16.17;75.54
68988;BME280;56038;46.080;11.116;2023-05-12T09:50:05;99023.38;;;16.40;74.75
68988;BME280;56038;46.080;11.116;2023-05-12T09:55:09;99015.16;;;16.57;74.26
68988;BME280;56038;46.080;11.116;2023-05-12T10:00:13;99013.81;;;16.88;73.81
68988;BME280;56038;46.080;11.116;2023-05-12T10:05:20;99008.63;;;16.99;72.96
68988;BME280;56038;46.080;11.116;2023-05-12T10:10:25;99017.38;;;17.00;72.87
68988;BME280;56038;46.080;11.116;2023-05-12T10:15:28;99010.09;;;17.03;72.24
68988;BME280;56038;46.080;11.116;2023-05-12T10:20:31;99008.25;;;16.93;72.51
68988;BME280;56038;46.080;11.116;2023-05-12T10:25:33;99007.69;;;17.00;72.44
68988;BME280;56038;46.080;11.116;2023-05-12T10:30:36;99009.31;;;16.90;72.68
68988;BME280;56038;46.080;11.116;2023-05-12T10:35:42;99010.88;;;16.93;72.57
68988;BME280;56038;46.080;11.116;2023-05-12T10:40:51;99007.94;;;16.85;71.28
68988;BME280;56038;46.080;11.116;2023-05-12T10:46:14;99013.00;;;16.88;69.31
68988;BME280;56038;46.080;11.116;2023-05-12T10:51:20;99012.19;;;17.11;70.30
68988;BME280;56038;46.080;11.116;2023-05-12T10:56:27;99010.94;;;17.28;69.98
68988;BME280;56038;46.080;11.116;2023-05-12T11:01:29;99009.72;;;17.69;69.36
68988;BME280;56038;46.080;11.116;2023-05-12T11:06:36;99002.97;;;18.00;67.56
68988;BME280;56038;46.080;11.116;2023-05-12T11:11:37;99012.66;;;17.88;67.84
68988;BME280;56038;46.080;11.116;2023-05-12T11:16:43;99007.63;;;17.61;67.98
68988;BME280;56038;46.080;11.116;2023-05-12T11:21:46;99005.19;;;17.82;67.56
68988;BME280;56038;46.080;11.116;2023-05-12T11:26:49;98996.84;;;18.10;67.09
68988;BME280;56038;46.080;11.116;2023-05-12T11:31:52;98996.50;;;18.26;66.18
68988;BME280;56038;46.080;11.116;2023-05-12T11:36:55;98993.59;;;18.29;66.07
68988;BME280;56038;46.080;11.116;2023-05-12T11:42:01;98991.78;;;18.07;63.60
68988;BME280;56038;46.080;11.116;2023-05-12T11:47:10;98987.41;;;17.49;59.65
68988;BME280;56038;46.080;11.116;2023-05-12T11:52:14;98985.19;;;18.02;62.63
68988;BME280;56038;46.080;11.116;2023-05-12T11:57:26;98988.22;;;18.19;58.38
68988;BME280;56038;46.080;11.116;2023-05-12T12:02:28;98978.84;;;18.38;58.23
68988;BME280;56038;46.080;11.116;2023-05-12T12:07:34;98974.84;;;18.77;59.74
68988;BME280;56038;46.080;11.116;2023-05-12T12:12:36;98973.22;;;18.65;57.92
68988;BME280;56038;46.080;11.116;2023-05-12T12:17:39;98975.44;;;18.58;58.35
68988;BME280;56038;46.080;11.116;2023-05-12T12:22:42;98980.41;;;18.18;58.08
68988;BME280;56038;46.080;11.116;2023-05-12T12:27:44;98975.09;;;18.29;58.43
68988;BME280;56038;46.080;11.116;2023-05-12T12:32:45;98965.84;;;18.23;58.44
68988;BME280;56038;46.080;11.116;2023-05-12T12:37:49;98965.97;;;18.00;60.26
68988;BME280;56038;46.080;11.116;2023-05-12T12:42:51;98966.38;;;17.82;61.11
68988;BME280;56038;46.080;11.116;2023-05-12T12:47:53;98963.19;;;18.46;60.04
68988;BME280;56038;46.080;11.116;2023-05-12T12:52:56;98967.34;;;19.36;56.79
68988;BME280;56038;46.080;11.116;2023-05-12T12:57:58;98970.06;;;19.57;56.23
68988;BME280;56038;46.080;11.116;2023-05-12T13:03:00;98962.00;;;18.83;55.44
68988;BME280;56038;46.080;11.116;2023-05-12T13:08:03;98959.72;;;18.45;58.44
68988;BME280;56038;46.080;11.116;2023-05-12T13:13:05;98965.47;;;17.83;60.21
68988;BME280;56038;46.080;11.116;2023-05-12T13:18:07;98959.81;;;17.53;64.29
68988;BME280;56038;46.080;11.116;2023-05-12T13:23:10;98964.88;;;17.21;65.57
68988;BME280;56038;46.080;11.116;2023-05-12T13:28:11;98951.31;;;17.25;65.56
68988;BME280;56038;46.080;11.116;2023-05-12T13:33:13;98949.13;;;17.54;64.59
68988;BME280;56038;46.080;11.116;2023-05-12T13:38:16;98934.94;;;17.90;64.37
68988;BME280;56038;46.080;11.116;2023-05-12T13:43:19;98939.16;;;18.38;63.32
68988;BME280;56038;46.080;11.116;2023-05-12T13:48:21;98930.25;;;19.68;59.96
68988;BME280;56038;46.080;11.116;2023-05-12T13:53:24;98932.53;;;20.03;58.79
68988;BME280;56038;46.080;11.116;2023-05-12T13:58:26;98933.22;;;20.26;57.98
68988;BME280;56038;46.080;11.116;2023-05-12T14:03:28;98919.56;;;20.81;56.40
68988;BME280;56038;46.080;11.116;2023-05-12T14:08:31;98921.69;;;20.87;55.15
68988;BME280;56038;46.080;11.116;2023-05-12T14:13:33;98922.19;;;20.52;55.70
68988;BME280;56038;46.080;11.116;2023-05-12T14:18:35;98931.19;;;19.58;53.94
68988;BME280;56038;46.080;11.116;2023-05-12T14:23:38;98928.03;;;18.89;52.56
68988;BME280;56038;46.080;11.116;2023-05-12T14:28:40;98929.53;;;18.81;55.03
68988;BME280;56038;46.080;11.116;2023-05-12T14:33:41;98933.81;;;18.94;53.57
68988;BME280;56038;46.080;11.116;2023-05-12T14:38:45;98926.19;;;18.68;55.15
68988;BME280;56038;46.080;11.116;2023-05-12T14:43:48;98928.44;;;18.73;55.78
68988;BME280;56038;46.080;11.116;2023-05-12T14:48:50;98938.09;;;18.07;59.29
68988;BME280;56038;46.080;11.116;2023-05-12T14:53:53;98944.09;;;17.86;61.35
68988;BME280;56038;46.080;11.116;2023-05-12T14:58:55;98956.59;;;17.60;63.02
68988;BME280;56038;46.080;11.116;2023-05-12T15:03:57;98949.69;;;17.47;64.27
68988;BME280;56038;46.080;11.116;2023-05-12T15:09:00;98962.91;;;17.47;65.04
68988;BME280;56038;46.080;11.116;2023-05-12T15:14:02;98966.41;;;16.63;68.66
68988;BME280;56038;46.080;11.116;2023-05-12T15:19:05;98973.88;;;16.56;67.98
68988;BME280;56038;46.080;11.116;2023-05-12T15:24:08;98979.09;;;16.45;69.18
68988;BME280;56038;46.080;11.116;2023-05-12T15:29:10;98985.63;;;16.39;69.52
68988;BME280;56038;46.080;11.116;2023-05-12T15:34:12;98999.34;;;16.32;72.03
68988;BME280;56038;46.080;11.116;2023-05-12T15:39:15;99004.44;;;15.97;71.26
68988;BME280;56038;46.080;11.116;2023-05-12T15:44:17;99011.78;;;15.52;73.93
68988;BME280;56038;46.080;11.116;2023-05-12T15:49:19;99019.34;;;15.17;76.49
68988;BME280;56038;46.080;11.116;2023-05-12T15:54:22;99028.34;;;15.00;77.67
68988;BME280;56038;46.080;11.116;2023-05-12T15:59:25;99020.16;;;15.05;77.76
68988;BME280;56038;46.080;11.116;2023-05-12T16:04:27;99014.63;;;15.22;78.17
68988;BME280;56038;46.080;11.116;2023-05-12T16:09:31;99025.25;;;15.20;77.58
68988;BME280;56038;46.080;11.116;2023-05-12T16:14:32;99029.44;;;15.37;76.63
68988;BME280;56038;46.080;11.116;2023-05-12T16:19:34;99030.53;;;15.47;76.53
68988;BME280;56038;46.080;11.116;2023-05-12T16:24:38;99030.25;;;15.11;78.25
68988;BME280;56038;46.080;11.116;2023-05-12T16:29:39;99026.47;;;14.88;79.86
68988;BME280;56038;46.080;11.116;2023-05-12T16:34:44;99034.94;;;14.79;80.17
68988;BME280;56038;46.080;11.116;2023-05-12T16:39:48;99034.19;;;14.77;81.37
68988;BME280;56038;46.080;11.116;2023-05-12T16:44:51;99026.78;;;14.69;81.48
68988;BME280;56038;46.080;11.116;2023-05-12T16:49:53;99029.56;;;14.80;80.38
68988;BME280;56038;46.080;11.116;2023-05-12T16:54:58;99028.06;;;14.90;79.94
68988;BME280;56038;46.080;11.116;2023-05-12T17:00:00;99038.25;;;15.09;79.98
68988;BME280;56038;46.080;11.116;2023-05-12T17:05:06;99031.25;;;15.22;80.74
68988;BME280;56038;46.080;11.116;2023-05-12T17:10:09;99032.53;;;15.29;80.67
68988;BME280;56038;46.080;11.116;2023-05-12T17:15:11;99038.38;;;15.35;80.84
68988;BME280;56038;46.080;11.116;2023-05-12T17:20:13;99033.75;;;15.38;79.73
68988;BME280;56038;46.080;11.116;2023-05-12T17:25:17;99035.31;;;15.41;79.28
68988;BME280;56038;46.080;11.116;2023-05-12T17:30:19;99040.75;;;15.25;79.18
68988;BME280;56038;46.080;11.116;2023-05-12T17:35:21;99045.94;;;15.12;79.55
68988;BME280;56038;46.080;11.116;2023-05-12T17:40:24;99047.34;;;15.18;79.63
68988;BME280;56038;46.080;11.116;2023-05-12T17:45:26;99057.31;;;15.13;79.61
68988;BME280;56038;46.080;11.116;2023-05-12T17:50:28;99065.19;;;15.13;79.80
68988;BME280;56038;46.080;11.116;2023-05-12T17:55:31;99067.66;;;15.16;79.60
68988;BME280;56038;46.080;11.116;2023-05-12T18:00:33;99076.56;;;15.13;79.55
68988;BME280;56038;46.080;11.116;2023-05-12T18:05:45;99081.19;;;15.10;80.49
68988;BME280;56038;46.080;11.116;2023-05-12T18:10:56;99078.13;;;15.03;82.13
68988;BME280;56038;46.080;11.116;2023-05-12T18:15:58;99087.22;;;14.97;82.97
68988;BME280;56038;46.080;11.116;2023-05-12T18:21:00;99086.56;;;14.94;83.78
68988;BME280;56038;46.080;11.116;2023-05-12T18:26:03;99088.84;;;14.86;84.03
68988;BME280;56038;46.080;11.116;2023-05-12T18:31:05;99096.06;;;14.82;83.45
68988;BME280;56038;46.080;11.116;2023-05-12T18:36:07;99101.16;;;14.71;83.50
68988;BME280;56038;46.080;11.116;2023-05-12T18:41:11;99106.50;;;14.55;83.85
68988;BME280;56038;46.080;11.116;2023-05-12T18:46:12;99126.97;;;14.34;86.13
68988;BME280;56038;46.080;11.116;2023-05-12T18:51:14;99129.88;;;14.30;85.63
68988;BME280;56038;46.080;11.116;2023-05-12T18:56:17;99137.00;;;14.28;85.23
68988;BME280;56038;46.080;11.116;2023-05-12T19:01:19;99156.03;;;14.17;86.14
68988;BME280;56038;46.080;11.116;2023-05-12T19:06:28;99167.31;;;14.03;86.62
68988;BME280;56038;46.080;11.116;2023-05-12T19:11:31;99172.75;;;14.00;85.73
68988;BME280;56038;46.080;11.116;2023-05-12T19:16:33;99176.59;;;13.95;87.43
68988;BME280;56038;46.080;11.116;2023-05-12T19:21:37;99179.47;;;13.90;86.25
68988;BME280;56038;46.080;11.116;2023-05-12T19:26:40;99182.34;;;13.86;85.97
68988;BME280;56038;46.080;11.116;2023-05-12T19:31:42;99184.84;;;13.73;87.40
68988;BME280;56038;46.080;11.116;2023-05-12T19:36:44;99190.16;;;13.71;87.52
68988;BME280;56038;46.080;11.116;2023-05-12T19:41:47;99199.03;;;13.69;88.00
68988;BME280;56038;46.080;11.116;2023-05-12T19:46:50;99199.88;;;13.69;87.78
68988;BME280;56038;46.080;11.116;2023-05-12T19:51:52;99206.16;;;13.67;87.70
68988;BME280;56038;46.080;11.116;2023-05-12T19:56:55;99206.34;;;13.64;87.70
68988;BME280;56038;46.080;11.116;2023-05-12T20:01:57;99206.34;;;13.64;87.82
68988;BME280;56038;46.080;11.116;2023-05-12T20:06:59;99217.19;;;13.58;88.31
68988;BME280;56038;46.080;11.116;2023-05-12T20:12:02;99226.88;;;13.56;88.70
68988;BME280;56038;46.080;11.116;2023-05-12T20:17:06;99230.53;;;13.69;86.96
68988;BME280;56038;46.080;11.116;2023-05-12T20:22:08;99243.75;;;13.67;87.55
68988;BME280;56038;46.080;11.116;2023-05-12T20:27:11;99237.06;;;13.62;88.89
68988;BME280;56038;46.080;11.116;2023-05-12T20:32:13;99239.59;;;13.63;89.34
68988;BME280;56038;46.080;11.116;2023-05-12T20:37:15;99242.22;;;13.63;88.79
68988;BME280;56038;46.080;11.116;2023-05-12T20:42:19;99252.91;;;13.60;88.85
68988;BME280;56038;46.080;11.116;2023-05-12T20:47:20;99253.97;;;13.56;88.21
68988;BME280;56038;46.080;11.116;2023-05-12T20:52:23;99254.91;;;13.55;87.50
68988;BME280;56038;46.080;11.116;2023-05-12T20:57:29;99257.13;;;13.47;86.94
68988;BME280;56038;46.080;11.116;2023-05-12T21:02:31;99254.41;;;13.48;87.30
68988;BME280;56038;46.080;11.116;2023-05-12T21:07:33;99256.78;;;13.53;87.88
68988;BME280;56038;46.080;11.116;2023-05-12T21:12:36;99256.00;;;13.51;88.08
68988;BME280;56038;46.080;11.116;2023-05-12T21:17:39;99257.28;;;13.44;87.77
68988;BME280;56038;46.080;11.116;2023-05-12T21:22:40;99260.66;;;13.30;89.47
68988;BME280;56038;46.080;11.116;2023-05-12T21:27:44;99262.25;;;13.33;89.44
68988;BME280;56038;46.080;11.116;2023-05-12T21:32:46;99264.72;;;13.36;89.82
68988;BME280;56038;46.080;11.116;2023-05-12T21:37:48;99274.34;;;13.35;89.63
68988;BME280;56038;46.080;11.116;2023-05-12T21:42:51;99271.56;;;13.38;89.46
68988;BME280;56038;46.080;11.116;2023-05-12T21:47:53;99276.72;;;13.40;88.73
68988;BME280;56038;46.080;11.116;2023-05-12T21:52:54;99287.19;;;13.24;90.19
68988;BME280;56038;46.080;11.116;2023-05-12T21:57:58;99291.19;;;13.14;91.61
68988;BME280;56038;46.080;11.116;2023-05-12T22:02:59;99296.28;;;13.17;91.43
68988;BME280;56038;46.080;11.116;2023-05-12T22:08:01;99287.19;;;13.24;91.34
68988;BME280;56038;46.080;11.116;2023-05-12T22:13:04;99285.28;;;13.28;91.21
68988;BME280;56038;46.080;11.116;2023-05-12T22:18:06;99291.44;;;13.27;91.78
68988;BME280;56038;46.080;11.116;2023-05-12T22:23:08;99299.44;;;13.24;91.65
68988;BME280;56038;46.080;11.116;2023-05-12T22:28:11;99296.22;;;13.18;91.35
68988;BME280;56038;46.080;11.116;2023-05-12T22:33:13;99295.59;;;13.13;92.18
68988;BME280;56038;46.080;11.116;2023-05-12T22:38:14;99299.34;;;13.08;92.93
68988;BME280;56038;46.080;11.116;2023-05-12T22:43:17;99301.47;;;13.01;92.91
68988;BME280;56038;46.080;11.116;2023-05-12T22:48:19;99307.03;;;12.95;94.04
68988;BME280;56038;46.080;11.116;2023-05-12T22:53:21;99308.00;;;12.93;93.97
68988;BME280;56038;46.080;11.116;2023-05-12T22:58:24;99308.00;;;12.93;93.83
68988;BME280;56038;46.080;11.116;2023-05-12T23:03:26;99315.19;;;12.89;94.10
68988;BME280;56038;46.080;11.116;2023-05-12T23:08:27;99311.72;;;12.88;94.25
68988;BME280;56038;46.080;11.116;2023-05-12T23:13:30;99316.72;;;12.76;94.76
68988;BME280;56038;46.080;11.116;2023-05-12T23:18:32;99316.88;;;12.73;94.60
68988;BME280;56038;46.080;11.116;2023-05-12T23:23:34;99316.59;;;12.79;93.99
68988;BME280;56038;46.080;11.116;2023-05-12T23:28:37;99314.41;;;12.87;93.17
68988;BME280;56038;46.080;11.116;2023-05-12T23:33:39;99324.13;;;12.85;93.20
68988;BME280;56038;46.080;11.116;2023-05-12T23:38:40;99323.53;;;12.80;93.89
68988;BME280;56038;46.080;11.116;2023-05-12T23:43:43;99316.59;;;12.79;94.36
68988;BME280;56038;46.080;11.116;2023-05-12T23:48:45;99307.09;;;12.76;94.19
68988;BME280;56038;46.080;11.116;2023-05-12T23:53:47;99313.03;;;12.80;94.13
68988;BME280;56038;46.080;11.116;2023-05-12T23:58:50;99319.56;;;12.71;94.17
